createdAt,value
2019-03-29T00:01:59.164Z,10.73
2019-03-29T00:04:29.072Z,10.60
2019-03-29T00:06:58.850Z,10.37
2019-03-29T00:09:28.787Z,10.50
2019-03-29T00:11:58.541Z,10.30
2019-03-29T00:14:28.560Z,11.13
2019-03-29T00:16:58.336Z,10.67
2019-03-29T00:19:28.138Z,10.50
2019-03-29T00:21:57.921Z,10.10
2019-03-29T00:24:27.712Z,12.20
2019-03-29T00:26:57.481Z,11.87
2019-03-29T00:29:27.283Z,11.33
2019-03-29T00:31:57.239Z,11.60
2019-03-29T00:34:27.253Z,11.77
2019-03-29T00:36:57.137Z,12.80
2019-03-29T00:39:26.938Z,12.73
2019-03-29T00:41:56.724Z,12.50
2019-03-29T00:44:26.979Z,11.70
2019-03-29T00:46:57.063Z,12.90
2019-03-29T00:49:26.869Z,12.97
2019-03-29T00:51:56.636Z,12.10
2019-03-29T00:54:28.008Z,12.73
2019-03-29T00:56:58.030Z,12.87
2019-03-29T00:59:27.861Z,12.83
2019-03-29T01:01:57.641Z,13.90
2019-03-29T01:04:28.969Z,14.87
2019-03-29T01:06:58.893Z,14.63
2019-03-29T01:09:28.695Z,14.90
2019-03-29T01:11:58.464Z,15.33
2019-03-29T01:14:28.269Z,14.70
2019-03-29T01:16:58.161Z,15.37
2019-03-29T01:19:28.183Z,15.73
2019-03-29T01:21:57.948Z,17.03
2019-03-29T01:24:27.758Z,15.73
2019-03-29T01:26:57.679Z,16.10
2019-03-29T01:29:27.477Z,17.33
2019-03-29T01:31:57.333Z,16.90
2019-03-29T01:34:27.231Z,17.77
2019-03-29T01:36:57.065Z,17.87
2019-03-29T01:39:27.083Z,19.10
2019-03-29T01:41:56.959Z,18.70
2019-03-29T01:44:27.875Z,18.90
2019-03-29T01:46:57.732Z,20.10
2019-03-29T01:49:27.759Z,19.63
2019-03-29T01:51:57.555Z,18.50
2019-03-29T01:54:27.372Z,19.30
2019-03-29T01:56:57.184Z,20.00
2019-03-29T01:59:27.077Z,19.60
2019-03-29T02:01:56.852Z,20.27
2019-03-29T02:04:26.759Z,21.03
2019-03-29T02:06:56.548Z,21.97
2019-03-29T02:09:26.353Z,19.97
2019-03-29T02:11:56.124Z,22.03
2019-03-29T02:14:25.922Z,21.33
2019-03-29T02:16:56.031Z,21.43
2019-03-29T02:19:26.660Z,21.63
2019-03-29T02:21:56.430Z,22.13
2019-03-29T02:24:26.255Z,21.10
2019-03-29T02:26:56.020Z,22.07
2019-03-29T02:29:25.816Z,21.33
2019-03-29T02:31:56.978Z,23.50
2019-03-29T02:34:26.865Z,22.57
2019-03-29T02:36:56.649Z,22.80
2019-03-29T02:39:27.048Z,23.10
2019-03-29T02:41:57.111Z,23.77
2019-03-29T02:44:26.923Z,23.33
2019-03-29T02:46:56.709Z,23.53
2019-03-29T02:49:26.478Z,23.93
2019-03-29T02:51:56.278Z,24.07
2019-03-29T02:54:26.060Z,23.57
2019-03-29T02:56:55.884Z,23.30
2019-03-29T02:59:25.670Z,23.20
2019-03-29T03:01:55.679Z,23.83
2019-03-29T03:04:25.492Z,23.30
2019-03-29T03:06:55.248Z,23.77
2019-03-29T03:09:25.135Z,23.07
2019-03-29T03:11:55.060Z,22.33
2019-03-29T03:14:24.843Z,20.20
2019-03-29T03:16:54.649Z,19.80
2019-03-29T03:19:24.433Z,18.97
2019-03-29T03:21:54.242Z,18.50
2019-03-29T03:24:24.024Z,18.57
2019-03-29T03:26:53.935Z,18.90
2019-03-29T03:29:23.721Z,19.83
2019-03-29T03:31:53.510Z,21.13
2019-03-29T03:34:23.308Z,19.80
2019-03-29T03:36:53.106Z,18.90
2019-03-29T03:39:31.336Z,18.57
2019-03-29T03:41:54.404Z,18.63
2019-03-29T03:44:24.190Z,19.17
2019-03-29T03:46:54.105Z,19.23
2019-03-29T03:49:23.991Z,19.70
2019-03-29T03:51:53.891Z,18.50
2019-03-29T03:54:24.195Z,18.40
2019-03-29T03:56:54.728Z,18.40
2019-03-29T03:59:25.713Z,17.83
2019-03-29T04:01:55.521Z,18.77
2019-03-29T04:04:25.291Z,17.87
2019-03-29T04:06:55.201Z,18.70
2019-03-29T04:09:24.999Z,17.73
2019-03-29T04:11:54.904Z,18.00
2019-03-29T04:14:24.788Z,19.03
2019-03-29T04:16:54.698Z,17.77
2019-03-29T04:19:24.483Z,17.83
2019-03-29T04:21:54.294Z,16.07
2019-03-29T04:24:24.155Z,16.50
2019-03-29T04:26:54.436Z,17.10
2019-03-29T04:29:24.206Z,15.80
2019-03-29T04:31:54.261Z,16.37
2019-03-29T04:34:24.031Z,16.00
2019-03-29T04:36:53.838Z,15.33
2019-03-29T04:39:23.676Z,15.77
2019-03-29T04:41:53.639Z,15.47
2019-03-29T04:44:23.506Z,15.60
2019-03-29T04:46:53.508Z,15.13
2019-03-29T04:49:23.280Z,15.37
2019-03-29T04:51:53.086Z,15.50
2019-03-29T04:54:22.874Z,15.07
2019-03-29T04:56:52.738Z,15.03
2019-03-29T04:59:22.488Z,15.87
2019-03-29T05:01:52.291Z,16.50
2019-03-29T05:04:22.060Z,15.43
2019-03-29T05:06:51.877Z,15.77
2019-03-29T05:09:21.657Z,17.70
2019-03-29T05:11:51.513Z,17.47
2019-03-29T05:14:21.537Z,17.67
2019-03-29T05:16:51.344Z,19.10
2019-03-29T05:19:21.143Z,18.83
2019-03-29T05:21:50.916Z,19.70
2019-03-29T05:24:20.720Z,20.50
2019-03-29T05:26:50.506Z,18.87
2019-03-29T05:29:20.415Z,20.70
2019-03-29T05:31:50.192Z,21.00
2019-03-29T05:34:20.002Z,20.07
2019-03-29T05:36:49.772Z,19.50
2019-03-29T05:39:19.590Z,19.27
2019-03-29T05:41:49.468Z,19.10
2019-03-29T05:44:19.414Z,20.13
2019-03-29T05:46:49.206Z,19.83
2019-03-29T05:49:18.998Z,18.03
2019-03-29T05:51:48.764Z,19.40
2019-03-29T05:54:18.585Z,18.00
2019-03-29T05:56:48.407Z,19.10
2019-03-29T05:59:18.197Z,18.30
2019-03-29T06:01:47.969Z,17.67
2019-03-29T06:04:17.764Z,18.10
2019-03-29T06:06:47.563Z,17.13
2019-03-29T06:09:17.571Z,17.43
2019-03-29T06:11:47.377Z,16.53
2019-03-29T06:14:17.151Z,15.60
2019-03-29T06:16:46.923Z,16.40
2019-03-29T06:19:16.736Z,15.30
2019-03-29T06:21:46.734Z,14.67
2019-03-29T06:24:16.528Z,14.33
2019-03-29T06:26:46.335Z,14.27
2019-03-29T06:29:16.149Z,14.20
2019-03-29T06:31:46.004Z,12.77
2019-03-29T06:34:15.792Z,12.87
2019-03-29T06:36:46.271Z,12.27
2019-03-29T06:39:16.675Z,11.27
2019-03-29T06:41:46.453Z,10.73
2019-03-29T06:44:16.275Z,10.73
2019-03-29T06:46:46.032Z,10.33
2019-03-29T06:49:15.828Z,10.03
2019-03-29T06:51:46.078Z,9.43
2019-03-29T06:54:15.887Z,8.70
2019-03-29T06:56:45.707Z,7.40
2019-03-29T06:59:15.497Z,7.30
2019-03-29T07:01:46.517Z,7.37
2019-03-29T07:04:16.660Z,7.07
2019-03-29T07:06:46.441Z,6.40
2019-03-29T07:09:16.260Z,6.87
2019-03-29T07:11:46.014Z,6.50
2019-03-29T07:14:15.911Z,5.42
2019-03-29T07:16:45.865Z,6.22
2019-03-29T07:19:15.656Z,5.72
2019-03-29T07:21:45.431Z,6.58
2019-03-29T07:24:15.330Z,6.53
2019-03-29T07:26:45.331Z,6.20
2019-03-29T07:29:15.129Z,6.10
2019-03-29T07:31:44.991Z,5.78
2019-03-29T07:34:14.775Z,4.62
2019-03-29T07:36:44.757Z,5.10
2019-03-29T07:39:14.570Z,4.95
2019-03-29T07:41:44.363Z,4.85
2019-03-29T07:44:15.153Z,4.60
2019-03-29T07:46:45.143Z,4.67
2019-03-29T07:49:14.919Z,3.77
2019-03-29T07:51:44.717Z,4.30
2019-03-29T07:54:14.481Z,4.03
2019-03-29T07:56:44.311Z,4.20
2019-03-29T07:59:14.101Z,3.80
2019-03-29T08:01:43.882Z,4.40
2019-03-29T08:04:13.754Z,4.10
2019-03-29T08:06:46.471Z,4.30
2019-03-29T08:09:22.193Z,4.45
2019-03-29T08:11:46.904Z,4.62
2019-03-29T08:14:16.853Z,4.53
2019-03-29T08:16:46.645Z,5.10
2019-03-29T08:19:16.411Z,4.90
2019-03-29T08:21:46.200Z,5.35
2019-03-29T08:24:15.980Z,5.47
2019-03-29T08:26:45.774Z,5.30
2019-03-29T08:29:15.651Z,5.05
2019-03-29T08:31:45.483Z,4.75
2019-03-29T08:34:15.262Z,5.62
2019-03-29T08:36:45.099Z,6.25
2019-03-29T08:39:27.391Z,6.20
2019-03-29T08:41:59.572Z,5.97
2019-03-29T08:44:18.070Z,5.37
2019-03-29T08:46:47.883Z,5.62
2019-03-29T08:49:17.693Z,5.75
2019-03-29T08:51:47.685Z,6.00
2019-03-29T08:54:17.566Z,5.90
2019-03-29T08:56:47.412Z,5.80
2019-03-29T08:59:17.857Z,6.53
2019-03-29T09:01:47.990Z,6.58
2019-03-29T09:04:17.870Z,6.28
2019-03-29T09:06:53.679Z,6.70
2019-03-29T09:09:19.172Z,6.45
2019-03-29T09:11:49.035Z,6.40
2019-03-29T09:14:18.860Z,6.35
2019-03-29T09:16:48.653Z,6.10
2019-03-29T09:19:18.476Z,5.58
2019-03-29T09:21:48.284Z,5.55
2019-03-29T09:24:22.198Z,5.70
2019-03-29T09:26:49.600Z,4.70
2019-03-29T09:29:19.374Z,5.10
2019-03-29T09:31:49.181Z,5.33
2019-03-29T09:34:18.965Z,5.22
2019-03-29T09:36:48.783Z,5.83
2019-03-29T09:39:18.579Z,5.70
2019-03-29T09:41:48.383Z,5.00
2019-03-29T09:44:18.155Z,5.10
2019-03-29T09:46:47.954Z,5.35
2019-03-29T09:49:17.730Z,5.00
2019-03-29T09:51:47.747Z,4.80
2019-03-29T09:54:20.403Z,4.87
2019-03-29T09:56:49.158Z,5.53
2019-03-29T09:59:19.092Z,4.90
2019-03-29T10:01:48.991Z,4.78
2019-03-29T10:04:18.781Z,4.90
2019-03-29T10:06:48.598Z,4.87
2019-03-29T10:09:18.382Z,4.50
2019-03-29T10:11:48.197Z,4.30
2019-03-29T10:14:17.988Z,5.15
2019-03-29T10:16:47.805Z,5.15
2019-03-29T10:19:17.579Z,5.17
2019-03-29T10:21:47.482Z,5.00
2019-03-29T10:24:17.339Z,4.67
2019-03-29T10:26:47.138Z,4.87
2019-03-29T10:29:16.895Z,4.60
2019-03-29T10:31:46.711Z,4.67
2019-03-29T10:34:16.635Z,4.78
2019-03-29T10:36:46.539Z,4.95
2019-03-29T10:39:16.534Z,5.17
2019-03-29T10:41:46.395Z,4.60
2019-03-29T10:44:16.280Z,4.72
2019-03-29T10:46:46.264Z,4.45
2019-03-29T10:49:16.079Z,4.92
2019-03-29T10:51:45.886Z,4.95
2019-03-29T10:54:15.776Z,4.80
2019-03-29T10:56:45.737Z,5.30
2019-03-29T10:59:26.773Z,5.45
2019-03-29T11:01:47.322Z,5.50
2019-03-29T11:04:17.230Z,5.50
2019-03-29T11:06:47.007Z,5.22
2019-03-29T11:09:16.833Z,5.50
2019-03-29T11:11:46.614Z,5.55
2019-03-29T11:14:16.416Z,5.40
2019-03-29T11:16:46.195Z,5.50
2019-03-29T11:19:16.021Z,5.65
2019-03-29T11:21:45.811Z,5.35
2019-03-29T11:24:15.733Z,5.65
2019-03-29T11:26:45.537Z,5.75
2019-03-29T11:29:15.403Z,5.55
2019-03-29T11:31:45.489Z,5.50
2019-03-29T11:34:15.417Z,6.05
2019-03-29T11:36:45.296Z,6.30
2019-03-29T11:39:15.105Z,5.78
2019-03-29T11:41:44.862Z,5.60
2019-03-29T11:44:14.820Z,5.80
2019-03-29T11:46:44.653Z,6.87
2019-03-29T11:49:14.758Z,7.22
2019-03-29T11:51:44.514Z,7.58
2019-03-29T11:54:14.311Z,6.67
2019-03-29T11:56:47.452Z,6.22
2019-03-29T11:59:15.618Z,6.08
2019-03-29T12:01:45.398Z,5.65
2019-03-29T12:04:15.201Z,5.95
2019-03-29T12:06:44.983Z,5.50
2019-03-29T12:09:14.795Z,5.92
2019-03-29T12:11:44.570Z,5.97
2019-03-29T12:14:14.384Z,6.47
2019-03-29T12:16:44.350Z,6.17
2019-03-29T12:19:14.155Z,5.72
2019-03-29T12:21:43.951Z,7.12
2019-03-29T12:24:13.852Z,7.40
2019-03-29T12:26:43.749Z,7.45
2019-03-29T12:29:13.780Z,6.70
2019-03-29T12:31:43.845Z,6.60
2019-03-29T12:34:13.716Z,7.00
2019-03-29T12:36:46.018Z,6.22
2019-03-29T12:39:15.271Z,6.35
2019-03-29T12:41:45.052Z,6.72
2019-03-29T12:44:14.872Z,7.15
2019-03-29T12:46:44.721Z,7.60
2019-03-29T12:49:15.481Z,8.05
2019-03-29T12:51:46.836Z,7.35
2019-03-29T12:54:17.233Z,8.13
2019-03-29T12:56:47.038Z,8.00
2019-03-29T12:59:17.138Z,7.93
2019-03-29T13:01:46.911Z,8.83
2019-03-29T13:04:16.720Z,7.67
2019-03-29T13:06:46.504Z,8.03
2019-03-29T13:09:16.380Z,7.43
2019-03-29T13:11:46.392Z,7.30
2019-03-29T13:14:16.187Z,7.30
2019-03-29T13:16:45.959Z,7.80
2019-03-29T13:19:15.862Z,7.60
2019-03-29T13:21:45.835Z,7.77
2019-03-29T13:24:16.186Z,8.43
2019-03-29T13:26:46.269Z,8.77
2019-03-29T13:29:16.112Z,9.00
2019-03-29T13:31:46.077Z,8.37
2019-03-29T13:34:15.915Z,8.23
2019-03-29T13:36:45.672Z,8.53
2019-03-29T13:39:15.714Z,7.73
2019-03-29T13:41:45.490Z,8.97
2019-03-29T13:44:23.732Z,9.37
2019-03-29T13:46:47.209Z,10.47
2019-03-29T13:49:17.168Z,8.37
2019-03-29T13:51:47.048Z,8.70
2019-03-29T13:54:16.943Z,8.60
2019-03-29T13:56:46.840Z,9.30
2019-03-29T13:59:16.716Z,8.87
2019-03-29T14:01:46.526Z,9.23
2019-03-29T14:04:16.311Z,9.43
2019-03-29T14:06:46.118Z,9.33
2019-03-29T14:09:15.995Z,9.00
2019-03-29T14:11:45.893Z,8.67
2019-03-29T14:14:15.876Z,9.47
2019-03-29T14:16:45.774Z,9.53
2019-03-29T14:19:15.556Z,8.73
2019-03-29T14:21:45.368Z,8.77
2019-03-29T14:24:15.252Z,8.60
2019-03-29T14:26:45.261Z,9.10
2019-03-29T14:29:15.045Z,8.80
2019-03-29T14:31:45.061Z,9.13
2019-03-29T14:34:14.849Z,8.53
2019-03-29T14:36:44.698Z,9.33
2019-03-29T14:39:14.571Z,9.00
2019-03-29T14:41:44.457Z,8.93
2019-03-29T14:44:14.261Z,8.67
2019-03-29T14:46:44.069Z,8.63
2019-03-29T14:49:13.994Z,9.27
2019-03-29T14:51:44.009Z,8.50
2019-03-29T14:54:13.787Z,9.10
2019-03-29T14:56:43.622Z,9.03
2019-03-29T14:59:13.500Z,9.03
2019-03-29T15:01:43.411Z,10.13
2019-03-29T15:04:13.204Z,9.23
2019-03-29T15:06:43.011Z,9.07
2019-03-29T15:09:12.898Z,9.00
2019-03-29T15:11:42.807Z,8.37
2019-03-29T15:14:12.682Z,9.20
2019-03-29T15:16:42.476Z,8.87
2019-03-29T15:19:12.413Z,8.00
2019-03-29T15:21:42.328Z,8.10
2019-03-29T15:24:12.204Z,8.23
2019-03-29T15:26:42.143Z,8.43
2019-03-29T15:29:12.052Z,9.47
2019-03-29T15:31:41.943Z,8.93
2019-03-29T15:34:11.830Z,8.53
2019-03-29T15:36:41.830Z,9.00
2019-03-29T15:39:11.669Z,7.90
2019-03-29T15:41:41.480Z,8.57
2019-03-29T15:44:11.357Z,8.00
2019-03-29T15:46:41.454Z,8.30
2019-03-29T15:49:11.268Z,8.30
2019-03-29T15:51:41.321Z,8.60
2019-03-29T15:54:11.204Z,8.37
2019-03-29T15:56:41.228Z,8.40
2019-03-29T15:59:11.016Z,7.87
2019-03-29T16:01:40.951Z,8.80
2019-03-29T16:04:10.721Z,8.53
2019-03-29T16:06:40.604Z,8.33
2019-03-29T16:09:10.493Z,8.87
2019-03-29T16:11:40.445Z,9.10
2019-03-29T16:14:10.217Z,8.40
2019-03-29T16:16:40.024Z,8.40
2019-03-29T16:19:09.915Z,8.73
2019-03-29T16:21:39.876Z,8.50
2019-03-29T16:24:09.751Z,8.50
2019-03-29T16:26:39.542Z,7.93
2019-03-29T16:29:09.364Z,8.13
2019-03-29T16:31:39.287Z,8.37
2019-03-29T16:34:09.095Z,7.77
2019-03-29T16:36:38.886Z,8.10
2019-03-29T16:39:09.141Z,7.77
2019-03-29T16:41:38.925Z,8.03
2019-03-29T16:44:08.736Z,7.80
2019-03-29T16:46:38.527Z,7.97
2019-03-29T16:49:08.548Z,7.90
2019-03-29T16:51:38.363Z,8.23
2019-03-29T16:54:08.531Z,8.70
2019-03-29T16:56:38.415Z,8.83
2019-03-29T16:59:08.326Z,7.73
2019-03-29T17:01:38.245Z,7.57
2019-03-29T17:04:08.152Z,8.40
2019-03-29T17:06:38.040Z,8.40
2019-03-29T17:09:08.856Z,7.67
2019-03-29T17:11:38.749Z,8.33
2019-03-29T17:14:08.656Z,7.33
2019-03-29T17:16:38.448Z,8.17
2019-03-29T17:19:08.257Z,7.47
2019-03-29T17:21:38.183Z,8.30
2019-03-29T17:24:08.017Z,7.87
2019-03-29T17:26:38.008Z,7.93
2019-03-29T17:29:07.916Z,7.73
2019-03-29T17:31:37.726Z,7.83
2019-03-29T17:34:07.570Z,7.73
2019-03-29T17:36:37.379Z,7.93
2019-03-29T17:39:08.508Z,8.50
2019-03-29T17:41:38.312Z,8.20
2019-03-29T17:44:08.289Z,8.20
2019-03-29T17:46:38.107Z,8.63
2019-03-29T17:49:08.100Z,8.77
2019-03-29T17:51:37.938Z,8.70
2019-03-29T17:54:07.943Z,8.77
2019-03-29T17:56:37.745Z,8.10
2019-03-29T17:59:07.545Z,8.17
2019-03-29T18:01:39.342Z,8.37
2019-03-29T18:04:09.020Z,7.80
2019-03-29T18:06:38.896Z,8.00
2019-03-29T18:09:09.220Z,8.00
2019-03-29T18:11:39.011Z,8.03
2019-03-29T18:14:08.825Z,8.03
2019-03-29T18:16:38.690Z,8.37
2019-03-29T18:19:08.738Z,8.77
2019-03-29T18:21:38.508Z,8.67
2019-03-29T18:24:08.483Z,10.03
2019-03-29T18:26:38.376Z,10.23
2019-03-29T18:29:08.299Z,8.80
2019-03-29T18:31:38.186Z,9.03
2019-03-29T18:34:08.773Z,8.70
2019-03-29T18:36:39.260Z,8.53
2019-03-29T18:39:09.365Z,9.10
2019-03-29T18:41:39.361Z,8.30
2019-03-29T18:44:09.283Z,9.80
2019-03-29T18:46:44.771Z,9.77
2019-03-29T18:49:10.761Z,9.67
2019-03-29T18:51:40.597Z,9.77
2019-03-29T18:54:10.501Z,9.40
2019-03-29T18:56:40.472Z,10.23
2019-03-29T18:59:10.394Z,10.27
2019-03-29T19:01:40.221Z,10.20
2019-03-29T19:04:10.021Z,9.77
2019-03-29T19:06:39.946Z,10.03
2019-03-29T19:09:09.759Z,12.30
2019-03-29T19:11:39.825Z,14.20
2019-03-29T19:14:09.654Z,11.60
2019-03-29T19:16:39.540Z,10.17
2019-03-29T19:19:10.566Z,10.00
2019-03-29T19:21:40.869Z,9.90
2019-03-29T19:24:11.014Z,10.20
2019-03-29T19:26:41.070Z,10.20
2019-03-29T19:29:11.049Z,10.63
2019-03-29T19:31:41.070Z,10.83
2019-03-29T19:34:10.982Z,11.20
2019-03-29T19:36:40.786Z,10.23
2019-03-29T19:39:10.587Z,10.77
2019-03-29T19:41:40.424Z,10.03
2019-03-29T19:44:13.038Z,10.80
2019-03-29T19:46:41.879Z,9.73
2019-03-29T19:49:11.690Z,9.60
2019-03-29T19:51:41.697Z,10.13
2019-03-29T19:54:11.600Z,10.57
2019-03-29T19:56:41.863Z,9.50
2019-03-29T19:59:11.919Z,9.90
2019-03-29T20:01:42.163Z,10.40
2019-03-29T20:04:12.020Z,10.40
2019-03-29T20:06:41.941Z,10.83
2019-03-29T20:09:11.878Z,12.30
2019-03-29T20:11:41.690Z,11.97
2019-03-29T20:14:11.662Z,12.73
2019-03-29T20:16:41.607Z,12.20
2019-03-29T20:19:11.435Z,11.53
2019-03-29T20:21:41.274Z,11.70
2019-03-29T20:24:11.082Z,11.93
2019-03-29T20:26:41.102Z,12.10
2019-03-29T20:29:10.920Z,11.40
2019-03-29T20:31:40.933Z,12.73
2019-03-29T20:34:10.782Z,11.83
2019-03-29T20:36:40.608Z,12.50
2019-03-29T20:39:10.431Z,12.30
2019-03-29T20:41:40.326Z,11.93
2019-03-29T20:44:10.113Z,11.77
2019-03-29T20:46:39.920Z,11.63
2019-03-29T20:49:09.686Z,12.27
2019-03-29T20:51:39.482Z,12.60
2019-03-29T20:54:09.256Z,13.97
2019-03-29T20:56:39.121Z,14.60
2019-03-29T20:59:08.902Z,14.93
2019-03-29T21:01:38.761Z,13.67
2019-03-29T21:04:08.732Z,13.40
2019-03-29T21:06:38.630Z,13.60
2019-03-29T21:09:09.392Z,12.87
2019-03-29T21:11:39.193Z,13.53
2019-03-29T21:14:08.998Z,12.90
2019-03-29T21:16:38.912Z,12.57
2019-03-29T21:19:08.808Z,11.97
2019-03-29T21:21:38.709Z,12.90
2019-03-29T21:24:08.708Z,12.10
2019-03-29T21:26:38.606Z,12.87
2019-03-29T21:29:08.387Z,12.40
2019-03-29T21:31:38.274Z,12.27
2019-03-29T21:34:08.059Z,13.17
2019-03-29T21:36:38.062Z,12.27
2019-03-29T21:39:11.577Z,12.63
2019-03-29T21:41:41.628Z,11.90
2019-03-29T21:44:11.401Z,11.63
2019-03-29T21:46:41.393Z,12.17
2019-03-29T21:49:11.177Z,12.13
2019-03-29T21:51:41.009Z,11.80
2019-03-29T21:54:10.787Z,11.87
2019-03-29T21:56:40.629Z,11.43
2019-03-29T21:59:10.504Z,12.20
2019-03-29T22:01:40.322Z,11.80
2019-03-29T22:04:10.100Z,12.27
2019-03-29T22:06:40.116Z,11.87
2019-03-29T22:09:10.269Z,11.37
2019-03-29T22:11:40.089Z,12.50
2019-03-29T22:14:09.992Z,12.40
2019-03-29T22:16:40.313Z,11.90
2019-03-29T22:19:10.111Z,12.13
2019-03-29T22:21:40.249Z,11.97
2019-03-29T22:24:10.079Z,11.07
2019-03-29T22:26:39.897Z,11.83
2019-03-29T22:29:09.693Z,12.30
2019-03-29T22:31:39.629Z,12.40
2019-03-29T22:34:09.467Z,11.97
2019-03-29T22:36:39.480Z,11.60
2019-03-29T22:39:09.441Z,11.87
2019-03-29T22:41:39.261Z,11.83
2019-03-29T22:44:09.036Z,11.87
2019-03-29T22:46:38.945Z,11.97
2019-03-29T22:49:08.838Z,11.90
2019-03-29T22:51:38.763Z,12.47
2019-03-29T22:54:08.648Z,12.10
2019-03-29T22:56:38.497Z,12.10
2019-03-29T22:59:08.481Z,11.97
2019-03-29T23:01:41.945Z,11.87
2019-03-29T23:04:11.714Z,11.93
2019-03-29T23:06:41.504Z,12.07
2019-03-29T23:09:12.171Z,11.80
2019-03-29T23:11:42.303Z,11.73
2019-03-29T23:14:12.418Z,11.43
2019-03-29T23:16:42.186Z,13.00
2019-03-29T23:19:12.092Z,11.80
2019-03-29T23:21:41.895Z,12.10
2019-03-29T23:24:11.729Z,12.30
2019-03-29T23:26:41.622Z,12.60
2019-03-29T23:29:11.530Z,12.33
2019-03-29T23:31:41.405Z,12.57
2019-03-29T23:34:11.344Z,13.13
2019-03-29T23:36:41.109Z,12.73
2019-03-29T23:39:11.020Z,11.80
2019-03-29T23:41:40.903Z,11.97
2019-03-29T23:44:10.706Z,12.20
2019-03-29T23:46:40.472Z,11.73
2019-03-29T23:49:20.961Z,12.13
2019-03-29T23:51:41.972Z,13.27
2019-03-29T23:54:11.839Z,12.83
2019-03-29T23:56:41.680Z,13.53
2019-03-29T23:59:11.582Z,12.53
